sensor_id;sensor_type;location;lat;lon;timestamp;pressure;altitude;pressure_sealevel;temperature;humidity
5484;BME280;2764;48.794;8.326;2022-07-29T00:00:24;99560.84;;;22.86;70.57
5484;BME280;2764;48.794;8.326;2022-07-29T00:01:26;99568.25;;;22.92;70.50
5484;BME280;2764;48.794;8.326;2022-07-29T00:02:28;99555.38;;;22.88;70.39
5484;BME280;2764;48.794;8.326;2022-07-29T00:03:30;99562.25;;;22.90;70.42
5484;BME280;2764;48.794;8.326;2022-07-29T00:04:34;99549.84;;;22.72;70.19
5484;BME280;2764;48.794;8.326;2022-07-29T00:05:38;99558.03;;;22.88;70.90
5484;BME280;2764;48.794;8.326;2022-07-29T00:06:40;99565.03;;;22.89;71.09
5484;BME280;2764;48.794;8.326;2022-07-29T00:07:42;99567.19;;;22.85;70.91
5484;BME280;2764;48.794;8.326;2022-07-29T00:08:43;99573.81;;;22.81;71.00
5484;BME280;2764;48.794;8.326;2022-07-29T00:09:45;99573.94;;;22.80;71.21
5484;BME280;2764;48.794;8.326;2022-07-29T00:10:52;99568.91;;;22.77;71.08
5484;BME280;2764;48.794;8.326;2022-07-29T00:11:57;99572.72;;;22.74;71.21
5484;BME280;2764;48.794;8.326;2022-07-29T00:12:59;99574.69;;;22.72;71.11
5484;BME280;2764;48.794;8.326;2022-07-29T00:14:01;99565.69;;;22.73;71.12
5484;BME280;2764;48.794;8.326;2022-07-29T00:15:04;99565.84;;;22.72;71.05
5484;BME280;2764;48.794;8.326;2022-07-29T00:16:05;99569.19;;;22.74;71.19
5484;BME280;2764;48.794;8.326;2022-07-29T00:17:08;99571.31;;;22.70;71.76
5484;BME280;2764;48.794;8.326;2022-07-29T00:18:09;99570.50;;;22.70;71.24
5484;BME280;2764;48.794;8.326;2022-07-29T00:19:11;99566.97;;;22.69;71.06
5484;BME280;2764;48.794;8.326;2022-07-29T00:20:13;99566.69;;;22.72;71.17
5484;BME280;2764;48.794;8.326;2022-07-29T00:21:14;99544.56;;;22.53;70.81
5484;BME280;2764;48.794;8.326;2022-07-29T00:22:16;99562.88;;;22.75;70.90
5484;BME280;2764;48.794;8.326;2022-07-29T00:23:18;99565.25;;;22.78;71.45
5484;BME280;2764;48.794;8.326;2022-07-29T00:24:19;99555.06;;;22.64;71.59
5484;BME280;2764;48.794;8.326;2022-07-29T00:25:21;99568.91;;;22.77;70.98
5484;BME280;2764;48.794;8.326;2022-07-29T00:26:23;99566.78;;;22.80;70.91
5484;BME280;2764;48.794;8.326;2022-07-29T00:27:25;99575.19;;;22.85;71.37
5484;BME280;2764;48.794;8.326;2022-07-29T00:28:26;99560.84;;;22.86;70.81
5484;BME280;2764;48.794;8.326;2022-07-29T00:29:28;99566.13;;;22.96;70.71
5484;BME280;2764;48.794;8.326;2022-07-29T00:30:35;99563.56;;;23.04;70.49
5484;BME280;2764;48.794;8.326;2022-07-29T00:31:36;99560.56;;;23.07;70.04
5484;BME280;2764;48.794;8.326;2022-07-29T00:32:38;99564.66;;;23.11;69.87
5484;BME280;2764;48.794;8.326;2022-07-29T00:33:40;99556.03;;;23.17;70.12
5484;BME280;2764;48.794;8.326;2022-07-29T00:34:41;99561.38;;;23.17;70.10
5484;BME280;2764;48.794;8.326;2022-07-29T00:36:02;99563.63;;;23.12;70.31
5484;BME280;2764;48.794;8.326;2022-07-29T00:37:03;99556.31;;;23.14;70.33
5484;BME280;2764;48.794;8.326;2022-07-29T00:38:08;99552.97;;;23.12;70.27
5484;BME280;2764;48.794;8.326;2022-07-29T00:39:09;99557.84;;;23.17;69.64
5484;BME280;2764;48.794;8.326;2022-07-29T00:40:11;99556.19;;;23.16;70.27
5484;BME280;2764;48.794;8.326;2022-07-29T00:41:13;99551.59;;;23.08;69.97
5484;BME280;2764;48.794;8.326;2022-07-29T00:42:14;99557.00;;;23.16;69.76
5484;BME280;2764;48.794;8.326;2022-07-29T00:43:17;99557.56;;;23.20;70.01
5484;BME280;2764;48.794;8.326;2022-07-29T00:44:19;99557.56;;;23.20;70.20
5484;BME280;2764;48.794;8.326;2022-07-29T00:45:20;99557.56;;;23.20;69.77
5484;BME280;2764;48.794;8.326;2022-07-29T00:46:23;99550.16;;;23.14;69.89
5484;BME280;2764;48.794;8.326;2022-07-29T00:47:25;99549.44;;;23.12;70.45
5484;BME280;2764;48.794;8.326;2022-07-29T00:48:26;99548.94;;;23.08;70.37
5484;BME280;2764;48.794;8.326;2022-07-29T00:49:28;99546.25;;;23.08;70.48
5484;BME280;2764;48.794;8.326;2022-07-29T00:50:31;99540.91;;;23.08;70.60
5484;BME280;2764;48.794;8.326;2022-07-29T00:51:37;99547.09;;;23.09;70.51
5484;BME280;2764;48.794;8.326;2022-07-29T00:52:40;99548.47;;;23.13;70.08
5484;BME280;2764;48.794;8.326;2022-07-29T00:53:41;99546.66;;;23.13;70.38
5484;BME280;2764;48.794;8.326;2022-07-29T00:54:43;99545.66;;;23.14;70.41
5484;BME280;2764;48.794;8.326;2022-07-29T00:55:45;99540.19;;;23.16;70.56
5484;BME280;2764;48.794;8.326;2022-07-29T00:56:47;99543.81;;;23.15;70.27
5484;BME280;2764;48.794;8.326;2022-07-29T00:57:48;99523.38;;;23.05;70.09
5484;BME280;2764;48.794;8.326;2022-07-29T00:58:51;99541.31;;;23.13;70.62
5484;BME280;2764;48.794;8.326;2022-07-29T00:59:53;99539.31;;;23.15;70.53
5484;BME280;2764;48.794;8.326;2022-07-29T01:00:54;99546.03;;;23.19;69.88
5484;BME280;2764;48.794;8.326;2022-07-29T01:01:56;99547.03;;;23.18;70.22
5484;BME280;2764;48.794;8.326;2022-07-29T01:02:58;99550.00;;;23.15;70.51
5484;BME280;2764;48.794;8.326;2022-07-29T01:04:00;99549.31;;;23.13;70.75
5484;BME280;2764;48.794;8.326;2022-07-29T01:05:02;99542.97;;;23.14;70.69
5484;BME280;2764;48.794;8.326;2022-07-29T01:06:05;99542.00;;;23.15;71.12
5484;BME280;2764;48.794;8.326;2022-07-29T01:07:07;99534.00;;;23.15;71.19
5484;BME280;2764;48.794;8.326;2022-07-29T01:08:11;99538.78;;;23.12;70.97
5484;BME280;2764;48.794;8.326;2022-07-29T01:09:14;99538.94;;;23.10;71.29
5484;BME280;2764;48.794;8.326;2022-07-29T01:10:18;99536.09;;;23.12;70.96
5484;BME280;2764;48.794;8.326;2022-07-29T01:11:20;99545.28;;;23.09;71.81
5484;BME280;2764;48.794;8.326;2022-07-29T01:12:27;99562.44;;;23.07;71.64
5484;BME280;2764;48.794;8.326;2022-07-29T01:13:30;99544.88;;;23.04;72.20
5484;BME280;2764;48.794;8.326;2022-07-29T01:14:34;99547.69;;;23.02;72.01
5484;BME280;2764;48.794;8.326;2022-07-29T01:15:53;99541.13;;;22.97;72.34
5484;BME280;2764;48.794;8.326;2022-07-29T01:17:12;99538.47;;;22.97;72.14
5484;BME280;2764;48.794;8.326;2022-07-29T01:18:24;99540.00;;;22.99;72.04
5484;BME280;2764;48.794;8.326;2022-07-29T01:21:55;99544.78;;;22.96;72.25
5484;BME280;2764;48.794;8.326;2022-07-29T01:26:03;99537.41;;;22.90;72.52
5484;BME280;2764;48.794;8.326;2022-07-29T01:27:26;99546.75;;;22.94;72.11
5484;BME280;2764;48.794;8.326;2022-07-29T01:28:39;99545.91;;;22.93;72.29
5484;BME280;2764;48.794;8.326;2022-07-29T01:29:49;99545.41;;;22.90;72.35
5484;BME280;2764;48.794;8.326;2022-07-29T01:30:55;99545.56;;;22.88;72.40
5484;BME280;2764;48.794;8.326;2022-07-29T01:32:01;99538.69;;;22.86;72.85
5484;BME280;2764;48.794;8.326;2022-07-29T01:33:11;99537.69;;;22.87;72.84
5484;BME280;2764;48.794;8.326;2022-07-29T01:35:59;99547.66;;;22.85;73.14
5484;BME280;2764;48.794;8.326;2022-07-29T01:37:18;99544.84;;;22.86;72.89
5484;BME280;2764;48.794;8.326;2022-07-29T01:38:22;99544.31;;;22.83;73.45
5484;BME280;2764;48.794;8.326;2022-07-29T01:39:30;99541.66;;;22.83;73.70
5484;BME280;2764;48.794;8.326;2022-07-29T01:40:58;99540.09;;;22.80;73.55
5484;BME280;2764;48.794;8.326;2022-07-29T01:43:18;99539.19;;;22.72;74.38
5484;BME280;2764;48.794;8.326;2022-07-29T01:44:33;99542.59;;;22.64;74.92
5484;BME280;2764;48.794;8.326;2022-07-29T01:45:43;99543.28;;;22.57;74.48
5484;BME280;2764;48.794;8.326;2022-07-29T01:46:52;99540.38;;;22.50;74.95
5484;BME280;2764;48.794;8.326;2022-07-29T01:49:27;99541.81;;;22.45;75.52
5484;BME280;2764;48.794;8.326;2022-07-29T01:50:40;99545.59;;;22.42;75.61
5484;BME280;2764;48.794;8.326;2022-07-29T01:51:51;99539.72;;;22.38;75.49
5484;BME280;2764;48.794;8.326;2022-07-29T01:52:56;99543.09;;;22.31;75.42
5484;BME280;2764;48.794;8.326;2022-07-29T01:54:12;99538.63;;;22.31;76.41
5484;BME280;2764;48.794;8.326;2022-07-29T01:55:15;99546.19;;;22.26;76.07
5484;BME280;2764;48.794;8.326;2022-07-29T01:56:19;99546.50;;;22.23;76.08
5484;BME280;2764;48.794;8.326;2022-07-29T01:57:26;99548.75;;;22.18;76.13
5484;BME280;2764;48.794;8.326;2022-07-29T01:58:31;99542.88;;;22.15;76.21
5484;BME280;2764;48.794;8.326;2022-07-29T01:59:34;99544.31;;;22.09;76.87
5484;BME280;2764;48.794;8.326;2022-07-29T02:00:38;99548.25;;;22.05;76.63
5484;BME280;2764;48.794;8.326;2022-07-29T02:01:45;99561.16;;;22.00;76.92
5484;BME280;2764;48.794;8.326;2022-07-29T02:02:49;99550.25;;;21.94;77.25
5484;BME280;2764;48.794;8.326;2022-07-29T02:03:53;99553.72;;;21.94;77.14
5484;BME280;2764;48.794;8.326;2022-07-29T02:04:57;99549.53;;;21.92;76.89
5484;BME280;2764;48.794;8.326;2022-07-29T02:06:01;99553.44;;;21.88;77.17
5484;BME280;2764;48.794;8.326;2022-07-29T02:07:06;99560.06;;;21.84;77.10
5484;BME280;2764;48.794;8.326;2022-07-29T02:08:10;99554.28;;;21.79;77.38
5484;BME280;2764;48.794;8.326;2022-07-29T02:09:14;99549.97;;;21.68;78.15
5484;BME280;2764;48.794;8.326;2022-07-29T02:10:22;99547.72;;;21.63;78.15
5484;BME280;2764;48.794;8.326;2022-07-29T02:11:26;99549.25;;;21.56;78.79
5484;BME280;2764;48.794;8.326;2022-07-29T02:12:29;99543.94;;;21.47;78.59
5484;BME280;2764;48.794;8.326;2022-07-29T02:13:34;99552.50;;;21.41;79.30
5484;BME280;2764;48.794;8.326;2022-07-29T02:14:40;99547.72;;;21.35;79.06
5484;BME280;2764;48.794;8.326;2022-07-29T02:15:44;99544.78;;;21.28;78.74
5484;BME280;2764;48.794;8.326;2022-07-29T02:16:50;99542.69;;;21.22;79.27
5484;BME280;2764;48.794;8.326;2022-07-29T02:18:16;99547.41;;;21.19;79.58
5484;BME280;2764;48.794;8.326;2022-07-29T02:19:19;99546.97;;;21.14;79.96
5484;BME280;2764;48.794;8.326;2022-07-29T02:20:23;99544.75;;;21.09;80.17
5484;BME280;2764;48.794;8.326;2022-07-29T02:21:27;99553.00;;;21.06;80.40
5484;BME280;2764;48.794;8.326;2022-07-29T02:22:31;99545.69;;;20.98;80.53
5484;BME280;2764;48.794;8.326;2022-07-29T02:23:35;99554.63;;;20.97;80.64
5484;BME280;2764;48.794;8.326;2022-07-29T02:24:53;99548.75;;;20.94;81.41
5484;BME280;2764;48.794;8.326;2022-07-29T02:25:56;99554.22;;;20.92;81.32
5484;BME280;2764;48.794;8.326;2022-07-29T02:26:59;99559.78;;;20.89;81.37
5484;BME280;2764;48.794;8.326;2022-07-29T02:28:03;99538.66;;;20.78;80.98
5484;BME280;2764;48.794;8.326;2022-07-29T02:29:06;99555.03;;;20.83;81.23
5484;BME280;2764;48.794;8.326;2022-07-29T02:30:11;99550.94;;;20.79;81.31
5484;BME280;2764;48.794;8.326;2022-07-29T02:31:15;99552.34;;;20.74;81.51
5484;BME280;2764;48.794;8.326;2022-07-29T02:32:19;99555.25;;;20.71;81.98
5484;BME280;2764;48.794;8.326;2022-07-29T02:33:23;99552.31;;;20.64;83.00
5484;BME280;2764;48.794;8.326;2022-07-29T02:34:26;99556.91;;;20.62;83.11
5484;BME280;2764;48.794;8.326;2022-07-29T02:35:29;99560.53;;;20.61;83.34
5484;BME280;2764;48.794;8.326;2022-07-29T02:36:36;99552.00;;;20.58;83.57
5484;BME280;2764;48.794;8.326;2022-07-29T02:37:38;99557.59;;;20.55;83.87
5484;BME280;2764;48.794;8.326;2022-07-29T02:38:42;99552.66;;;20.50;84.26
5484;BME280;2764;48.794;8.326;2022-07-29T02:39:54;99552.88;;;20.38;84.38
5484;BME280;2764;48.794;8.326;2022-07-29T02:40:58;99563.41;;;20.39;85.82
5484;BME280;2764;48.794;8.326;2022-07-29T02:42:03;99566.44;;;20.35;85.82
5484;BME280;2764;48.794;8.326;2022-07-29T02:43:07;99558.03;;;20.29;85.23
5484;BME280;2764;48.794;8.326;2022-07-29T02:44:18;99557.72;;;20.23;85.87
5484;BME280;2764;48.794;8.326;2022-07-29T02:45:21;99561.69;;;20.17;86.43
5484;BME280;2764;48.794;8.326;2022-07-29T02:46:29;99550.06;;;20.09;87.12
5484;BME280;2764;48.794;8.326;2022-07-29T02:47:47;99554.22;;;20.02;87.99
5484;BME280;2764;48.794;8.326;2022-07-29T02:49:15;99557.50;;;19.94;87.02
5484;BME280;2764;48.794;8.326;2022-07-29T02:50:22;99560.56;;;19.90;87.54
5484;BME280;2764;48.794;8.326;2022-07-29T02:51:33;99562.91;;;19.83;87.76
5484;BME280;2764;48.794;8.326;2022-07-29T02:52:50;99565.09;;;19.78;88.00
5484;BME280;2764;48.794;8.326;2022-07-29T02:53:59;99558.63;;;19.71;88.28
5484;BME280;2764;48.794;8.326;2022-07-29T02:56:14;99555.88;;;19.61;88.39
5484;BME280;2764;48.794;8.326;2022-07-29T02:58:57;99566.16;;;19.55;89.75
5484;BME280;2764;48.794;8.326;2022-07-29T03:00:05;99571.47;;;19.55;90.20
5484;BME280;2764;48.794;8.326;2022-07-29T03:01:14;99566.44;;;19.52;90.89
5484;BME280;2764;48.794;8.326;2022-07-29T03:02:22;99559.81;;;19.46;90.93
5484;BME280;2764;48.794;8.326;2022-07-29T03:03:28;99570.56;;;19.45;91.20
5484;BME280;2764;48.794;8.326;2022-07-29T03:04:32;99562.72;;;19.43;91.13
5484;BME280;2764;48.794;8.326;2022-07-29T03:05:35;99580.19;;;19.46;91.04
5484;BME280;2764;48.794;8.326;2022-07-29T03:06:40;99576.69;;;19.45;91.70
5484;BME280;2764;48.794;8.326;2022-07-29T03:07:45;99579.34;;;19.45;90.59
5484;BME280;2764;48.794;8.326;2022-07-29T03:08:49;99581.19;;;19.45;90.63
5484;BME280;2764;48.794;8.326;2022-07-29T03:09:52;99580.34;;;19.44;90.92
5484;BME280;2764;48.794;8.326;2022-07-29T03:10:55;99583.13;;;19.43;90.67
5484;BME280;2764;48.794;8.326;2022-07-29T03:11:57;99571.69;;;19.31;90.10
5484;BME280;2764;48.794;8.326;2022-07-29T03:13:00;99579.16;;;19.37;89.93
5484;BME280;2764;48.794;8.326;2022-07-29T03:14:02;99581.09;;;19.35;90.59
5484;BME280;2764;48.794;8.326;2022-07-29T03:15:06;99581.09;;;19.35;89.69
5484;BME280;2764;48.794;8.326;2022-07-29T03:16:09;99585.50;;;19.35;89.47
5484;BME280;2764;48.794;8.326;2022-07-29T03:17:11;99591.06;;;19.32;90.30
5484;BME280;2764;48.794;8.326;2022-07-29T03:18:14;99579.88;;;19.28;89.91
5484;BME280;2764;48.794;8.326;2022-07-29T03:19:17;99578.06;;;19.29;90.50
5484;BME280;2764;48.794;8.326;2022-07-29T03:20:19;99587.81;;;19.28;90.02
5484;BME280;2764;48.794;8.326;2022-07-29T03:21:21;99587.97;;;19.27;90.51
5484;BME280;2764;48.794;8.326;2022-07-29T03:22:24;99586.41;;;19.24;90.39
5484;BME280;2764;48.794;8.326;2022-07-29T03:23:25;99590.84;;;19.24;90.81
5484;BME280;2764;48.794;8.326;2022-07-29T03:24:36;99574.00;;;19.14;90.81
5484;BME280;2764;48.794;8.326;2022-07-29T03:25:38;99585.94;;;19.19;91.76
5484;BME280;2764;48.794;8.326;2022-07-29T03:26:39;99586.16;;;19.16;91.98
5484;BME280;2764;48.794;8.326;2022-07-29T03:27:42;99578.72;;;19.10;91.83
5484;BME280;2764;48.794;8.326;2022-07-29T03:28:44;99590.03;;;19.12;92.50
5484;BME280;2764;48.794;8.326;2022-07-29T03:29:47;99581.38;;;19.10;92.27
5484;BME280;2764;48.794;8.326;2022-07-29T03:30:50;99585.13;;;19.08;92.43
5484;BME280;2764;48.794;8.326;2022-07-29T03:31:53;99531.94;;;18.77;92.02
5484;BME280;2764;48.794;8.326;2022-07-29T03:32:55;99569.94;;;18.99;92.19
5484;BME280;2764;48.794;8.326;2022-07-29T03:33:59;99576.81;;;19.01;92.93
5484;BME280;2764;48.794;8.326;2022-07-29T03:35:00;99577.44;;;18.93;92.34
5484;BME280;2764;48.794;8.326;2022-07-29T03:36:02;99581.50;;;18.98;91.85
5484;BME280;2764;48.794;8.326;2022-07-29T03:37:05;99573.81;;;18.95;91.66
5484;BME280;2764;48.794;8.326;2022-07-29T03:38:07;99582.00;;;18.91;91.51
5484;BME280;2764;48.794;8.326;2022-07-29T03:39:10;99583.22;;;18.87;92.23
5484;BME280;2764;48.794;8.326;2022-07-29T03:40:38;99581.66;;;18.85;92.32
5484;BME280;2764;48.794;8.326;2022-07-29T03:41:43;99586.34;;;18.81;92.48
5484;BME280;2764;48.794;8.326;2022-07-29T03:42:46;99585.50;;;18.81;92.78
5484;BME280;2764;48.794;8.326;2022-07-29T03:43:51;99573.13;;;18.70;92.24
5484;BME280;2764;48.794;8.326;2022-07-29T03:44:54;99586.72;;;18.77;92.25
5484;BME280;2764;48.794;8.326;2022-07-29T03:45:57;99584.06;;;18.77;92.62
5484;BME280;2764;48.794;8.326;2022-07-29T03:47:02;99592.03;;;18.77;92.77
5484;BME280;2764;48.794;8.326;2022-07-29T03:48:08;99592.88;;;18.77;92.77
5484;BME280;2764;48.794;8.326;2022-07-29T03:49:11;99592.16;;;18.75;93.35
5484;BME280;2764;48.794;8.326;2022-07-29T03:50:16;99591.06;;;18.78;93.40
5484;BME280;2764;48.794;8.326;2022-07-29T03:51:18;99597.31;;;18.77;93.54
5484;BME280;2764;48.794;8.326;2022-07-29T03:52:34;99587.69;;;18.76;93.53
5484;BME280;2764;48.794;8.326;2022-07-29T03:53:37;99589.50;;;18.75;94.41
5484;BME280;2764;48.794;8.326;2022-07-29T03:54:39;99610.06;;;18.72;94.75
5484;BME280;2764;48.794;8.326;2022-07-29T03:55:43;99589.63;;;18.74;95.53
5484;BME280;2764;48.794;8.326;2022-07-29T03:56:48;99594.31;;;18.70;95.94
5484;BME280;2764;48.794;8.326;2022-07-29T03:57:52;99584.22;;;18.64;96.30
5484;BME280;2764;48.794;8.326;2022-07-29T03:58:54;99590.94;;;18.68;94.96
5484;BME280;2764;48.794;8.326;2022-07-29T03:59:56;99588.44;;;18.67;95.11
5484;BME280;2764;48.794;8.326;2022-07-29T04:00:58;99576.50;;;18.61;95.62
5484;BME280;2764;48.794;8.326;2022-07-29T04:02:02;99590.94;;;18.68;95.27
5484;BME280;2764;48.794;8.326;2022-07-29T04:03:05;99595.41;;;18.68;95.42
5484;BME280;2764;48.794;8.326;2022-07-29T04:04:12;99593.84;;;18.65;95.21
5484;BME280;2764;48.794;8.326;2022-07-29T04:05:15;99590.94;;;18.68;95.41
5484;BME280;2764;48.794;8.326;2022-07-29T04:06:16;99598.75;;;18.70;95.48
5484;BME280;2764;48.794;8.326;2022-07-29T04:07:18;99588.44;;;18.67;95.47
5484;BME280;2764;48.794;8.326;2022-07-29T04:08:20;99593.47;;;18.70;95.58
5484;BME280;2764;48.794;8.326;2022-07-29T04:09:21;99595.03;;;18.72;95.53
5484;BME280;2764;48.794;8.326;2022-07-29T04:10:23;99594.66;;;18.77;95.54
5484;BME280;2764;48.794;8.326;2022-07-29T04:11:32;99591.91;;;18.78;95.69
5484;BME280;2764;48.794;8.326;2022-07-29T04:12:54;99583.00;;;18.79;95.86
5484;BME280;2764;48.794;8.326;2022-07-29T04:13:55;99589.97;;;18.80;96.29
5484;BME280;2764;48.794;8.326;2022-07-29T04:14:57;99590.81;;;18.81;95.39
5484;BME280;2764;48.794;8.326;2022-07-29T04:15:59;99592.50;;;18.82;95.41
5484;BME280;2764;48.794;8.326;2022-07-29T04:17:02;99589.72;;;18.83;94.88
5484;BME280;2764;48.794;8.326;2022-07-29T04:18:04;99593.94;;;18.86;95.08
5484;BME280;2764;48.794;8.326;2022-07-29T04:19:07;99594.56;;;18.89;94.97
5484;BME280;2764;48.794;8.326;2022-07-29T04:20:09;99594.28;;;18.92;94.39
5484;BME280;2764;48.794;8.326;2022-07-29T04:21:11;99589.59;;;18.96;95.12
5484;BME280;2764;48.794;8.326;2022-07-29T04:22:13;99586.81;;;18.98;94.86
5484;BME280;2764;48.794;8.326;2022-07-29T04:23:15;99600.78;;;19.00;95.01
5484;BME280;2764;48.794;8.326;2022-07-29T04:24:17;99598.13;;;19.00;94.70
5484;BME280;2764;48.794;8.326;2022-07-29T04:25:19;99597.31;;;18.99;94.70
5484;BME280;2764;48.794;8.326;2022-07-29T04:26:21;99598.13;;;19.00;94.61
5484;BME280;2764;48.794;8.326;2022-07-29T04:27:22;99592.97;;;18.98;94.91
5484;BME280;2764;48.794;8.326;2022-07-29T04:28:24;99599.47;;;19.05;95.05
5484;BME280;2764;48.794;8.326;2022-07-29T04:29:27;99604.53;;;19.08;94.59
5484;BME280;2764;48.794;8.326;2022-07-29T04:30:30;99602.59;;;19.10;94.56
5484;BME280;2764;48.794;8.326;2022-07-29T04:31:32;99598.94;;;19.11;95.17
5484;BME280;2764;48.794;8.326;2022-07-29T04:32:33;99605.94;;;19.12;94.57
5484;BME280;2764;48.794;8.326;2022-07-29T04:33:35;99599.66;;;19.13;95.23
5484;BME280;2764;48.794;8.326;2022-07-29T04:34:37;99605.19;;;19.21;95.93
5484;BME280;2764;48.794;8.326;2022-07-29T04:35:38;99607.47;;;19.26;97.49
5484;BME280;2764;48.794;8.326;2022-07-29T04:36:52;99606.97;;;19.32;98.00
5484;BME280;2764;48.794;8.326;2022-07-29T04:37:54;99563.78;;;19.09;97.61
5484;BME280;2764;48.794;8.326;2022-07-29T04:38:56;99608.19;;;19.39;96.25
5484;BME280;2764;48.794;8.326;2022-07-29T04:39:57;99613.38;;;19.40;95.92
5484;BME280;2764;48.794;8.326;2022-07-29T04:40:59;99617.22;;;19.47;95.66
5484;BME280;2764;48.794;8.326;2022-07-29T04:42:01;99613.59;;;19.48;94.67
5484;BME280;2764;48.794;8.326;2022-07-29T04:43:02;99615.00;;;19.52;95.14
5484;BME280;2764;48.794;8.326;2022-07-29T04:44:06;99613.09;;;19.54;93.78
5484;BME280;2764;48.794;8.326;2022-07-29T04:45:09;99612.34;;;19.52;93.55
5484;BME280;2764;48.794;8.326;2022-07-29T04:46:11;99619.13;;;19.56;92.80
5484;BME280;2764;48.794;8.326;2022-07-29T04:47:12;99617.41;;;19.55;92.25
5484;BME280;2764;48.794;8.326;2022-07-29T04:48:14;99616.00;;;19.51;92.64
5484;BME280;2764;48.794;8.326;2022-07-29T04:49:16;99625.75;;;19.51;92.32
5484;BME280;2764;48.794;8.326;2022-07-29T04:50:17;99624.09;;;19.50;92.51
5484;BME280;2764;48.794;8.326;2022-07-29T04:51:19;99619.88;;;19.47;92.94
5484;BME280;2764;48.794;8.326;2022-07-29T04:52:21;99603.72;;;19.39;93.04
5484;BME280;2764;48.794;8.326;2022-07-29T04:53:22;99619.13;;;19.45;93.54
5484;BME280;2764;48.794;8.326;2022-07-29T04:54:24;99620.84;;;19.46;93.49
5484;BME280;2764;48.794;8.326;2022-07-29T04:55:26;99617.94;;;19.49;92.77
5484;BME280;2764;48.794;8.326;2022-07-29T04:56:28;99627.19;;;19.55;92.33
5484;BME280;2764;48.794;8.326;2022-07-29T04:57:30;99618.41;;;19.54;92.39
5484;BME280;2764;48.794;8.326;2022-07-29T04:58:34;99624.88;;;19.61;92.95
5484;BME280;2764;48.794;8.326;2022-07-29T04:59:36;99628.13;;;19.65;92.39
5484;BME280;2764;48.794;8.326;2022-07-29T05:00:38;99626.91;;;19.69;91.40
5484;BME280;2764;48.794;8.326;2022-07-29T05:01:40;99586.81;;;19.51;91.14
5484;BME280;2764;48.794;8.326;2022-07-29T05:02:43;99637.47;;;19.80;91.21
5484;BME280;2764;48.794;8.326;2022-07-29T05:03:45;99639.88;;;19.83;90.78
5484;BME280;2764;48.794;8.326;2022-07-29T05:04:47;99629.00;;;19.86;91.38
5484;BME280;2764;48.794;8.326;2022-07-29T05:05:48;99635.16;;;19.87;90.47
5484;BME280;2764;48.794;8.326;2022-07-29T05:06:50;99635.59;;;19.92;90.23
5484;BME280;2764;48.794;8.326;2022-07-29T05:07:52;99632.94;;;19.92;90.68
5484;BME280;2764;48.794;8.326;2022-07-29T05:08:53;99638.97;;;19.94;91.16
5484;BME280;2764;48.794;8.326;2022-07-29T05:09:55;99632.94;;;19.92;91.04
5484;BME280;2764;48.794;8.326;2022-07-29T05:10:58;99632.22;;;19.90;90.80
5484;BME280;2764;48.794;8.326;2022-07-29T05:12:12;99633.53;;;19.95;89.97
5484;BME280;2764;48.794;8.326;2022-07-29T05:13:14;99635.34;;;19.95;89.59
5484;BME280;2764;48.794;8.326;2022-07-29T05:14:15;99640.28;;;19.99;89.90
5484;BME280;2764;48.794;8.326;2022-07-29T05:15:18;99639.19;;;20.02;90.15
5484;BME280;2764;48.794;8.326;2022-07-29T05:16:19;99636.13;;;20.06;90.08
5484;BME280;2764;48.794;8.326;2022-07-29T05:17:21;99641.31;;;20.08;89.88
5484;BME280;2764;48.794;8.326;2022-07-29T05:18:23;99643.56;;;20.12;89.62
5484;BME280;2764;48.794;8.326;2022-07-29T05:19:26;99649.47;;;20.16;89.53
5484;BME280;2764;48.794;8.326;2022-07-29T05:20:29;99642.09;;;20.19;89.90
5484;BME280;2764;48.794;8.326;2022-07-29T05:21:31;99635.34;;;20.15;89.93
5484;BME280;2764;48.794;8.326;2022-07-29T05:22:32;99642.94;;;20.20;90.00
5484;BME280;2764;48.794;8.326;2022-07-29T05:23:34;99642.09;;;20.19;90.20
5484;BME280;2764;48.794;8.326;2022-07-29T05:24:35;99647.19;;;20.22;90.37
5484;BME280;2764;48.794;8.326;2022-07-29T05:25:37;99648.03;;;20.23;90.90
5484;BME280;2764;48.794;8.326;2022-07-29T05:26:44;99646.06;;;20.25;90.53
5484;BME280;2764;48.794;8.326;2022-07-29T05:27:45;99647.63;;;20.27;90.41
5484;BME280;2764;48.794;8.326;2022-07-29T05:28:51;99652.56;;;20.32;89.76
5484;BME280;2764;48.794;8.326;2022-07-29T05:29:53;99662.66;;;20.38;88.98
5484;BME280;2764;48.794;8.326;2022-07-29T05:30:54;99651.53;;;20.44;88.54
5484;BME280;2764;48.794;8.326;2022-07-29T05:31:56;99646.78;;;20.48;88.32
5484;BME280;2764;48.794;8.326;2022-07-29T05:32:58;99651.44;;;20.55;88.16
5484;BME280;2764;48.794;8.326;2022-07-29T05:34:00;99645.84;;;20.58;87.68
5484;BME280;2764;48.794;8.326;2022-07-29T05:35:01;99650.00;;;20.72;87.01
5484;BME280;2764;48.794;8.326;2022-07-29T05:36:04;99653.66;;;20.80;86.55
5484;BME280;2764;48.794;8.326;2022-07-29T05:37:07;99657.31;;;20.89;86.09
5484;BME280;2764;48.794;8.326;2022-07-29T05:38:09;99655.56;;;20.99;86.03
5484;BME280;2764;48.794;8.326;2022-07-29T05:39:11;99651.97;;;21.10;85.11
5484;BME280;2764;48.794;8.326;2022-07-29T05:40:14;99648.50;;;21.19;84.16
5484;BME280;2764;48.794;8.326;2022-07-29T05:41:15;99651.03;;;21.20;83.51
5484;BME280;2764;48.794;8.326;2022-07-29T05:42:17;99649.91;;;21.23;83.34
5484;BME280;2764;48.794;8.326;2022-07-29T05:43:19;99657.50;;;21.27;82.91
5484;BME280;2764;48.794;8.326;2022-07-29T05:44:22;99642.88;;;21.12;82.19
5484;BME280;2764;48.794;8.326;2022-07-29T05:45:25;99637.31;;;21.25;82.95
5484;BME280;2764;48.794;8.326;2022-07-29T05:46:27;99662.25;;;21.33;83.19
5484;BME280;2764;48.794;8.326;2022-07-29T05:47:29;99660.44;;;21.34;82.84
5484;BME280;2764;48.794;8.326;2022-07-29T05:48:31;99656.69;;;21.36;83.13
5484;BME280;2764;48.794;8.326;2022-07-29T05:49:33;99657.22;;;21.40;83.59
5484;BME280;2764;48.794;8.326;2022-07-29T05:50:35;99657.66;;;21.45;83.88
5484;BME280;2764;48.794;8.326;2022-07-29T05:51:44;99654.72;;;21.57;82.58
5484;BME280;2764;48.794;8.326;2022-07-29T05:52:46;99660.22;;;21.65;81.72
5484;BME280;2764;48.794;8.326;2022-07-29T05:53:50;99657.97;;;21.71;82.09
5484;BME280;2764;48.794;8.326;2022-07-29T05:54:51;99654.47;;;21.70;81.49
5484;BME280;2764;48.794;8.326;2022-07-29T05:55:53;99660.50;;;21.82;81.52
5484;BME280;2764;48.794;8.326;2022-07-29T05:56:55;99663.16;;;21.82;80.71
5484;BME280;2764;48.794;8.326;2022-07-29T05:57:57;99671.31;;;21.80;80.93
5484;BME280;2764;48.794;8.326;2022-07-29T05:58:58;99674.97;;;21.89;81.20
5484;BME280;2764;48.794;8.326;2022-07-29T06:00:00;99671.63;;;21.96;81.13
5484;BME280;2764;48.794;8.326;2022-07-29T06:01:02;99677.66;;;22.08;81.02
5484;BME280;2764;48.794;8.326;2022-07-29T06:02:04;99673.28;;;22.16;80.30